Terminal Aerodrome Forecast
Issued by NWS

Home | Current Version | Previous Version | Text Only | Print | Product List | Glossary On
Versions: 1 2 3 4 5 6 7 8 9 10 11 12 13 14 15 16 17 18 19 20 21 22 23 24 25 26 27 28 29 30 31 32
000
FTUS42 KTAE 050500
TAFECP
TAF
KECP 050520Z 0506/0606 14005KT 1/2SM FG OVC002
     FM051200 16004KT 2SM BR OVC003
     FM051600 19008KT 5SM -RA BR OVC008
     FM052000 31011KT 6SM -RA OVC015
     FM060000 34013KT P6SM OVC030=

USA.gov is the U.S. government's official web portal to all federal, state and local government web resources and services.